Time;durP1;ratioP1;P1;durP2;ratioP2;P2;SDS_P1;SDS_P2;PMS_P1;PMS_P2;Temp;Humidity;BMP_temperature;BMP_pressure;BME280_temperature;BME280_humidity;BME280_pressure;Samples;Min_cycle;Max_cycle;Signal;HPM_P1;HPM_P2
2022/02/24 00:00:12;;;;;;;4.80;3.10;;;5.80;99.90;;;;;;4978569;28;20305;-79
2022/02/24 00:02:37;;;;;;;10.95;3.40;;;5.90;99.90;;;;;;4962084;28;20051;-80
2022/02/24 00:05:03;;;;;;;9.57;2.90;;;5.90;99.90;;;;;;4979636;28;20041;-79
2022/02/24 00:07:29;;;;;;;5.03;2.90;;;6.20;99.90;;;;;;4979733;28;20055;-79
2022/02/24 00:09:54;;;;;;;7.25;3.00;;;6.00;99.90;;;;;;4978003;28;20055;-79
2022/02/24 00:12:20;;;;;;;5.45;2.50;;;6.20;99.90;;;;;;4960493;28;20023;-79
2022/02/24 00:14:46;;;;;;;5.80;3.08;;;6.30;99.90;;;;;;4977933;28;20039;-80
2022/02/24 00:17:12;;;;;;;6.93;2.97;;;6.30;99.90;;;;;;4977453;28;20039;-80
2022/02/24 00:19:38;;;;;;;4.63;2.38;;;7.90;99.90;;;;;;4977101;28;20041;-79
2022/02/24 00:22:04;;;;;;;5.45;3.15;;;6.40;99.90;;;;;;4975902;28;20041;-80
2022/02/24 00:24:30;;;;;;;9.30;4.97;;;6.30;99.90;;;;;;4977341;28;20474;-79
2022/02/24 00:26:56;;;;;;;6.28;3.10;;;6.50;99.90;;;;;;4978305;28;20031;-80
2022/02/24 00:29:21;;;;;;;6.57;3.03;;;6.20;99.90;;;;;;4977260;28;20035;-79
2022/02/24 00:31:47;;;;;;;5.38;2.55;;;7.20;99.90;;;;;;4977869;28;20030;-79
2022/02/24 00:34:13;;;;;;;6.47;2.75;;;6.10;99.90;;;;;;4977702;28;20468;-79
2022/02/24 00:36:38;;;;;;;5.15;2.67;;;6.20;99.90;;;;;;4978370;28;20102;-79
2022/02/24 00:39:04;;;;;;;7.97;2.85;;;6.40;99.90;;;;;;4977141;28;20035;-79
2022/02/24 00:41:30;;;;;;;4.85;2.45;;;6.20;99.90;;;;;;4959746;28;20031;-79
2022/02/24 00:43:55;;;;;;;5.05;2.40;;;6.30;99.90;;;;;;4976949;28;20027;-79
2022/02/24 00:46:21;;;;;;;6.47;2.35;;;6.30;99.90;;;;;;4977219;28;20079;-79
2022/02/24 00:48:47;;;;;;;4.60;2.63;;;6.30;99.90;;;;;;4977219;28;20113;-79
2022/02/24 00:51:12;;;;;;;6.65;2.67;;;6.30;99.90;;;;;;4978279;28;20042;-79
2022/02/24 00:53:41;;;;;;;6.40;2.55;;;6.00;99.90;;;;;;4978535;28;20039;-79
2022/02/24 00:56:08;;;;;;;4.75;2.40;;;6.50;99.90;;;;;;4961064;28;20118;-79
2022/02/24 00:58:34;;;;;;;6.53;2.47;;;7.70;99.90;;;;;;4978244;28;20062;-79
2022/02/24 01:00:59;;;;;;;6.72;2.85;;;7.40;99.90;;;;;;4978928;28;20035;-79
2022/02/24 01:03:25;;;;;;;7.75;2.40;;;6.30;99.90;;;;;;4961439;28;20065;-79
2022/02/24 01:05:51;;;;;;;5.47;2.45;;;6.30;99.90;;;;;;4977436;28;20495;-79
2022/02/24 01:08:16;;;;;;;6.95;2.67;;;6.10;99.90;;;;;;4976259;28;20034;-80
2022/02/24 01:10:42;;;;;;;5.55;2.60;;;6.10;99.90;;;;;;4975635;28;20031;-79
2022/02/24 01:13:08;;;;;;;6.43;2.55;;;6.30;99.90;;;;;;4975324;28;20061;-79
2022/02/24 01:15:38;;;;;;;3.80;2.33;;;6.50;99.90;;;;;;4958043;28;20084;-79
2022/02/24 01:18:07;;;;;;;5.18;2.30;;;7.20;99.90;;;;;;4975728;28;20072;-79
2022/02/24 01:20:32;;;;;;;5.88;1.92;;;6.60;99.90;;;;;;4974226;28;20495;-79
2022/02/24 01:22:58;;;;;;;4.32;2.20;;;8.10;99.90;;;;;;4975198;28;20045;-79
2022/02/24 01:25:24;;;;;;;2.65;1.60;;;6.80;99.90;;;;;;4974839;28;20518;-79
2022/02/24 01:27:52;;;;;;;4.97;2.15;;;6.70;99.90;;;;;;4957501;28;20464;-79
2022/02/24 01:30:18;;;;;;;6.13;2.53;;;6.60;99.90;;;;;;4974549;28;20034;-79
2022/02/24 01:32:44;;;;;;;3.78;2.20;;;6.70;99.90;;;;;;4975139;28;20066;-79
2022/02/24 01:35:10;;;;;;;5.43;2.80;;;7.20;99.90;;;;;;4966904;28;20079;-79
2022/02/24 01:37:36;;;;;;;7.55;2.13;;;6.90;99.90;;;;;;4975795;28;20160;-79
2022/02/24 01:40:03;;;;;;;5.45;2.00;;;6.70;99.90;;;;;;4980251;28;20102;-79
2022/02/24 01:42:29;;;;;;;6.32;1.98;;;6.70;99.90;;;;;;4960719;28;20474;-79
2022/02/24 01:44:54;;;;;;;4.50;1.83;;;6.70;99.90;;;;;;4965337;28;20471;-79
2022/02/24 01:47:20;;;;;;;3.58;1.52;;;6.70;99.90;;;;;;4975907;28;20035;-80
2022/02/24 01:49:46;;;;;;;5.95;2.08;;;6.70;99.90;;;;;;4973996;28;20027;-80
2022/02/24 01:52:12;;;;;;;4.82;1.88;;;6.80;99.90;;;;;;4973953;28;20027;-80
2022/02/24 01:54:39;;;;;;;3.03;1.65;;;6.80;99.90;;;;;;4973751;28;20031;-79
2022/02/24 01:57:05;;;;;;;3.80;1.70;;;6.80;99.90;;;;;;4973279;28;20081;-79
2022/02/24 01:59:32;;;;;;;3.60;1.83;;;6.90;99.90;;;;;;4972346;28;20039;-79
2022/02/24 02:01:58;;;;;;;4.75;2.00;;;6.80;99.90;;;;;;4955374;28;20031;-80
2022/02/24 02:04:24;;;;;;;4.03;1.67;;;6.80;99.90;;;;;;4972333;28;20031;-79
2022/02/24 02:06:50;;;;;;;7.47;2.53;;;6.80;99.90;;;;;;4958042;28;20049;-79
2022/02/24 02:09:18;;;;;;;3.13;1.40;;;6.70;99.90;;;;;;4977117;28;20502;-79
2022/02/24 02:11:43;;;;;;;2.70;1.65;;;6.80;99.90;;;;;;4960330;28;20046;-79
2022/02/24 02:14:10;;;;;;;2.47;1.50;;;7.50;99.90;;;;;;4958607;28;20031;-79
2022/02/24 02:16:41;;;;;;;6.35;1.40;;;7.00;99.90;;;;;;4963101;28;20027;-79
2022/02/24 02:19:07;;;;;;;2.80;1.55;;;7.20;99.90;;;;;;4965460;28;20341;-79
2022/02/24 02:21:32;;;;;;;3.97;1.60;;;6.90;99.90;;;;;;4977306;28;20067;-79
2022/02/24 02:23:58;;;;;;;3.33;1.55;;;6.90;99.90;;;;;;4974456;28;20027;-79
2022/02/24 02:26:23;;;;;;;3.75;1.70;;;6.90;99.90;;;;;;4974642;28;20065;-79
2022/02/24 02:28:49;;;;;;;6.00;1.98;;;6.70;99.90;;;;;;4973232;28;20042;-79
2022/02/24 02:31:19;;;;;;;2.90;1.60;;;6.80;99.90;;;;;;4973578;28;20042;-79
2022/02/24 02:33:45;;;;;;;3.28;1.40;;;6.80;99.90;;;;;;4974586;28;20022;-79
2022/02/24 02:36:10;;;;;;;6.03;1.80;;;6.60;99.90;;;;;;4973607;28;20487;-79
2022/02/24 02:38:36;;;;;;;3.13;1.48;;;6.60;99.90;;;;;;4976499;28;20533;-78
2022/02/24 02:41:01;;;;;;;3.35;1.60;;;6.60;99.90;;;;;;4986118;28;20058;-78
2022/02/24 02:43:27;;;;;;;4.05;1.60;;;6.60;99.90;;;;;;4983207;28;20031;-78
2022/02/24 02:45:52;;;;;;;4.60;1.30;;;6.50;99.90;;;;;;4980854;28;20061;-79
2022/02/24 02:48:18;;;;;;;4.70;1.95;;;6.70;99.90;;;;;;4981549;28;20474;-79
2022/02/24 02:50:44;;;;;;;4.78;1.55;;;7.00;99.90;;;;;;4979640;28;20110;-79
2022/02/24 02:53:10;;;;;;;3.65;2.00;;;6.50;99.90;;;;;;4979776;28;20662;-79
2022/02/24 02:55:35;;;;;;;4.40;1.80;;;6.40;99.90;;;;;;4980809;28;20033;-79
2022/02/24 02:58:01;;;;;;;5.25;1.63;;;6.50;99.90;;;;;;4980155;28;20027;-79
2022/02/24 03:00:27;;;;;;;4.85;1.42;;;6.50;99.90;;;;;;4979112;28;20069;-79
2022/02/24 03:02:52;;;;;;;3.40;1.33;;;6.40;99.90;;;;;;4980847;28;20110;-79
2022/02/24 03:05:18;;;;;;;4.28;1.40;;;6.70;99.90;;;;;;4980318;28;20023;-79
2022/02/24 03:07:44;;;;;;;3.40;1.52;;;6.90;99.90;;;;;;4976960;28;20514;-79
2022/02/24 03:10:09;;;;;;;4.75;1.60;;;6.80;99.90;;;;;;4974862;28;20049;-79
2022/02/24 03:12:36;;;;;;;4.18;1.55;;;6.70;99.90;;;;;;4975208;28;20455;-79
2022/02/24 03:15:08;;;;;;;3.20;1.48;;;6.60;99.90;;;;;;4975336;28;20377;-79
2022/02/24 03:17:37;;;;;;;4.50;1.65;;;6.50;99.90;;;;;;4975654;28;20450;-79
2022/02/24 03:20:03;;;;;;;4.70;1.40;;;6.60;99.90;;;;;;4974417;28;20396;-79
2022/02/24 03:22:29;;;;;;;3.60;1.63;;;6.60;99.90;;;;;;4974868;28;20046;-79
2022/02/24 03:24:54;;;;;;;3.40;1.77;;;6.80;99.90;;;;;;4975237;28;20442;-79
2022/02/24 03:27:20;;;;;;;3.90;1.50;;;6.70;99.90;;;;;;4975334;28;20067;-79
2022/02/24 03:29:46;;;;;;;3.75;1.42;;;6.80;99.90;;;;;;4975336;28;20076;-79
2022/02/24 03:32:11;;;;;;;2.70;1.40;;;6.40;99.90;;;;;;4958059;28;20027;-79
2022/02/24 03:34:38;;;;;;;3.42;1.58;;;6.40;99.90;;;;;;4975406;28;20583;-79
2022/02/24 03:37:03;;;;;;;3.40;1.80;;;7.90;99.90;;;;;;4958280;28;20027;-79
2022/02/24 03:39:29;;;;;;;5.15;1.90;;;6.40;99.90;;;;;;4975194;28;20034;-79
2022/02/24 03:41:55;;;;;;;6.90;2.53;;;6.40;99.90;;;;;;4975219;28;20031;-79
2022/02/24 03:44:20;;;;;;;6.45;2.13;;;7.20;99.90;;;;;;4975512;28;20030;-79
2022/02/24 03:46:47;;;;;;;5.55;2.38;;;6.40;99.90;;;;;;4976001;28;20098;-78
2022/02/24 03:49:13;;;;;;;3.00;1.73;;;6.40;99.90;;;;;;4973920;28;20031;-79
2022/02/24 03:51:38;;;;;;;4.43;1.88;;;6.00;99.90;;;;;;4959103;28;20034;-78
2022/02/24 03:54:04;;;;;;;5.65;1.92;;;6.20;99.90;;;;;;4970199;28;20112;-78
2022/02/24 03:56:30;;;;;;;4.70;2.10;;;6.30;99.90;;;;;;4960410;28;20083;-79
2022/02/24 03:58:55;;;;;;;6.10;2.42;;;6.60;99.90;;;;;;4957517;28;20039;-79
2022/02/24 04:01:21;;;;;;;4.93;2.30;;;5.90;99.90;;;;;;4976661;28;20046;-79
2022/02/24 04:03:46;;;;;;;5.57;1.98;;;6.00;99.90;;;;;;4973209;28;20096;-78
2022/02/24 04:06:12;;;;;;;3.42;1.48;;;6.00;99.90;;;;;;4972589;28;20483;-78
2022/02/24 04:08:38;;;;;;;4.45;2.15;;;5.90;99.90;;;;;;4974908;28;20038;-79
2022/02/24 04:11:04;;;;;;;4.25;1.70;;;6.00;99.90;;;;;;4975088;28;20031;-78
2022/02/24 04:13:29;;;;;;;2.58;1.50;;;6.10;99.90;;;;;;4975668;28;20108;-79
2022/02/24 04:15:55;;;;;;;2.45;1.50;;;5.90;99.90;;;;;;4976592;28;20092;-79
2022/02/24 04:18:20;;;;;;;4.90;1.40;;;5.90;99.90;;;;;;4958094;28;20037;-79
2022/02/24 04:20:46;;;;;;;4.20;1.90;;;5.80;99.90;;;;;;4971172;28;20038;-78
2022/02/24 04:23:13;;;;;;;3.15;1.45;;;5.90;99.90;;;;;;4974704;28;20054;-79
2022/02/24 04:25:38;;;;;;;4.25;1.90;;;6.00;99.90;;;;;;4976788;28;20030;-78
2022/02/24 04:28:04;;;;;;;3.72;2.00;;;6.00;99.90;;;;;;4974693;28;20050;-79
2022/02/24 04:30:30;;;;;;;4.30;1.80;;;6.00;99.90;;;;;;4957256;28;20080;-78
2022/02/24 04:32:55;;;;;;;3.50;1.98;;;6.40;99.90;;;;;;4975026;28;20031;-78
2022/02/24 04:35:21;;;;;;;2.67;1.55;;;6.10;99.90;;;;;;4957632;28;20396;-78
2022/02/24 04:37:46;;;;;;;3.95;1.58;;;6.10;99.90;;;;;;4957222;28;20112;-79
2022/02/24 04:40:13;;;;;;;2.78;1.60;;;6.00;99.90;;;;;;4974302;28;20037;-79
2022/02/24 04:42:39;;;;;;;3.47;1.58;;;7.20;99.90;;;;;;4956820;28;20031;-79
2022/02/24 04:45:05;;;;;;;3.60;1.52;;;7.60;99.90;;;;;;4974817;28;20514;-78
2022/02/24 04:47:31;;;;;;;2.88;1.58;;;5.90;99.90;;;;;;4974346;28;20038;-79
2022/02/24 04:49:57;;;;;;;2.38;1.48;;;5.90;99.90;;;;;;4970933;28;20035;-78
2022/02/24 04:52:22;;;;;;;4.53;1.80;;;5.90;99.90;;;;;;4970820;28;20027;-78
2022/02/24 04:54:48;;;;;;;4.57;1.67;;;5.90;99.90;;;;;;4971324;28;20058;-78
2022/02/24 04:57:14;;;;;;;3.65;1.48;;;6.80;99.90;;;;;;4971492;28;20023;-78
2022/02/24 04:59:39;;;;;;;5.05;1.63;;;6.00;99.90;;;;;;4971561;28;20035;-78
2022/02/24 05:02:05;;;;;;;4.55;1.70;;;6.00;99.90;;;;;;4969885;28;20022;-78
2022/02/24 05:04:31;;;;;;;3.70;1.50;;;6.10;99.90;;;;;;4954232;28;20164;-78
2022/02/24 05:06:58;;;;;;;3.60;2.15;;;6.00;99.90;;;;;;4973179;28;20504;-78
2022/02/24 05:09:24;;;;;;;3.88;1.50;;;5.90;99.90;;;;;;4974474;28;20037;-77
2022/02/24 05:11:50;;;;;;;4.05;1.77;;;5.80;99.90;;;;;;4974809;28;20114;-78
2022/02/24 05:14:16;;;;;;;3.15;1.50;;;5.90;99.90;;;;;;4974988;28;20051;-77
2022/02/24 05:16:42;;;;;;;2.92;1.50;;;5.80;99.90;;;;;;4972445;28;20022;-77
2022/02/24 05:19:07;;;;;;;3.25;1.63;;;5.90;99.90;;;;;;4970630;28;20039;-78
2022/02/24 05:21:33;;;;;;;2.97;1.67;;;5.80;99.90;;;;;;4970637;28;20438;-78
2022/02/24 05:23:58;;;;;;;4.05;2.00;;;5.90;99.90;;;;;;4971733;28;20046;-78
2022/02/24 05:26:24;;;;;;;5.20;2.05;;;5.90;99.90;;;;;;4972915;28;20038;-78
2022/02/24 05:28:49;;;;;;;3.67;2.10;;;6.10;99.90;;;;;;4972819;28;20376;-78
2022/02/24 05:31:15;;;;;;;4.97;2.28;;;5.60;99.90;;;;;;4972878;28;20052;-78
2022/02/24 05:33:41;;;;;;;5.00;2.65;;;5.60;99.90;;;;;;4972509;28;20035;-79
2022/02/24 05:36:06;;;;;;;4.22;2.22;;;5.40;99.90;;;;;;4955758;28;20030;-79
2022/02/24 05:38:32;;;;;;;6.00;2.70;;;5.70;99.90;;;;;;4971969;28;20039;-79
2022/02/24 05:40:58;;;;;;;6.78;3.85;;;5.20;99.90;;;;;;4973977;28;20058;-80
2022/02/24 05:43:25;;;;;;;9.35;3.70;;;6.20;99.90;;;;;;4972640;28;20031;-79
2022/02/24 05:45:57;;;;;;;11.20;4.28;;;5.00;99.90;;;;;;4973364;28;20038;-81
2022/02/24 05:48:23;;;;;;;12.15;4.95;;;4.80;99.90;;;;;;4958206;28;20035;-82
2022/02/24 05:50:49;;;;;;;7.88;3.83;;;4.90;99.90;;;;;;4974415;28;20050;-82
2022/02/24 05:53:15;;;;;;;10.85;4.70;;;6.00;99.90;;;;;;4974114;28;20037;-82
2022/02/24 05:55:41;;;;;;;9.38;4.60;;;4.90;99.90;;;;;;4975033;28;20027;-81
2022/02/24 05:58:06;;;;;;;12.68;5.00;;;4.80;99.90;;;;;;4975248;28;20046;-81
2022/02/24 06:00:32;;;;;;;9.40;4.10;;;4.70;99.90;;;;;;4974533;28;20027;-80
2022/02/24 06:02:58;;;;;;;11.32;4.70;;;4.90;99.90;;;;;;4976595;28;20053;-81
2022/02/24 06:05:23;;;;;;;10.07;5.60;;;5.00;99.90;;;;;;4976547;28;20027;-80
2022/02/24 06:07:49;;;;;;;11.02;5.70;;;6.00;99.90;;;;;;4958054;28;20419;-81
2022/02/24 06:10:15;;;;;;;8.00;4.30;;;4.90;99.90;;;;;;4975652;28;20062;-81
2022/02/24 06:12:41;;;;;;;6.28;3.42;;;5.00;99.90;;;;;;4983992;28;20031;-80
2022/02/24 06:15:08;;;;;;;5.97;3.20;;;5.10;99.90;;;;;;4989599;28;20109;-80
2022/02/24 06:17:35;;;;;;;7.40;2.47;;;4.80;99.90;;;;;;4987666;28;20042;-81
2022/02/24 06:20:01;;;;;;;6.25;2.95;;;5.00;99.90;;;;;;4988304;28;20054;-80
2022/02/24 06:22:27;;;;;;;8.55;2.90;;;6.10;99.90;;;;;;4978665;28;20027;-77
2022/02/24 06:24:52;;;;;;;4.00;2.45;;;5.20;99.90;;;;;;4973576;28;20043;-77
2022/02/24 06:27:18;;;;;;;5.07;2.53;;;5.20;99.90;;;;;;4969957;28;20027;-77
2022/02/24 06:29:45;;;;;;;4.90;2.50;;;5.30;99.90;;;;;;4966018;28;20027;-77
2022/02/24 06:32:13;;;;;;;5.53;2.80;;;5.30;99.90;;;;;;4972789;28;20027;-77
2022/02/24 06:34:39;;;;;;;5.13;2.83;;;5.30;99.90;;;;;;4973032;28;20399;-77
2022/02/24 06:37:05;;;;;;;5.38;2.88;;;5.30;99.90;;;;;;4972761;28;20072;-77
2022/02/24 06:39:31;;;;;;;7.75;3.42;;;5.40;99.90;;;;;;4972301;28;20503;-76
2022/02/24 06:41:57;;;;;;;16.52;8.95;;;5.20;99.90;;;;;;4972634;28;20068;-76
2022/02/24 06:44:22;;;;;;;14.18;8.20;;;5.10;99.90;;;;;;4977374;28;20123;-80
2022/02/24 06:46:48;;;;;;;6.70;4.10;;;5.10;99.90;;;;;;4977019;28;20461;-80
2022/02/24 06:49:14;;;;;;;6.70;3.85;;;5.30;99.90;;;;;;4976239;28;20038;-80
2022/02/24 06:51:39;;;;;;;7.65;4.85;;;5.00;99.90;;;;;;4960986;28;20031;-80
2022/02/24 06:54:05;;;;;;;6.10;3.55;;;5.00;99.90;;;;;;4961337;29;20067;-80
2022/02/24 06:56:31;;;;;;;6.93;3.30;;;5.00;99.90;;;;;;4930794;28;20035;-80
2022/02/24 06:58:56;;;;;;;5.95;3.80;;;5.50;99.90;;;;;;4926027;29;20500;-80
2022/02/24 07:01:22;;;;;;;8.23;3.90;;;4.90;99.90;;;;;;4953757;28;20045;-81
2022/02/24 07:03:47;;;;;;;4.55;3.58;;;5.20;99.90;;;;;;4977749;28;20049;-81
2022/02/24 07:06:13;;;;;;;5.78;4.05;;;6.10;99.90;;;;;;4976089;28;20034;-81
2022/02/24 07:08:39;;;;;;;4.72;3.47;;;5.20;99.90;;;;;;4974220;28;20459;-80
2022/02/24 07:11:05;;;;;;;5.03;3.70;;;5.10;99.90;;;;;;4976038;28;20383;-80
2022/02/24 07:13:31;;;;;;;6.07;4.68;;;5.20;99.90;;;;;;4958665;28;20108;-80
2022/02/24 07:15:56;;;;;;;8.70;4.20;;;5.30;99.90;;;;;;4964346;28;20031;-81
2022/02/24 07:18:22;;;;;;;8.45;3.80;;;5.30;99.90;;;;;;4968564;28;20166;-80
2022/02/24 07:20:48;;;;;;;6.88;4.30;;;5.40;99.90;;;;;;4961889;28;20031;-81
2022/02/24 07:23:13;;;;;;;6.70;3.75;;;5.60;99.90;;;;;;4973582;28;20449;-79
2022/02/24 07:25:40;;;;;;;7.97;4.00;;;5.80;99.90;;;;;;4975869;28;20039;-81
2022/02/24 07:28:07;;;;;;;10.80;4.13;;;5.50;99.90;;;;;;4977161;28;20126;-80
2022/02/24 07:30:36;;;;;;;7.57;3.72;;;6.00;99.90;;;;;;4971324;28;20441;-80
2022/02/24 07:33:02;;;;;;;7.95;2.92;;;6.00;99.90;;;;;;4976046;28;20033;-81
2022/02/24 07:35:28;;;;;;;5.85;2.95;;;6.70;99.90;;;;;;4976839;28;20130;-80
2022/02/24 07:37:54;;;;;;;6.20;3.70;;;6.20;99.90;;;;;;4977093;28;20056;-80
2022/02/24 07:40:19;;;;;;;6.13;3.65;;;6.40;99.90;;;;;;4974838;28;20098;-80
2022/02/24 07:42:45;;;;;;;6.68;2.75;;;7.00;99.90;;;;;;4972333;28;20031;-79
2022/02/24 07:45:11;;;;;;;5.10;2.97;;;7.60;99.90;;;;;;4960309;28;20031;-79
2022/02/24 07:47:37;;;;;;;6.05;2.72;;;7.30;99.90;;;;;;4976829;28;20035;-79
2022/02/24 07:50:03;;;;;;;5.28;2.70;;;6.70;99.90;;;;;;4976368;28;20539;-78
2022/02/24 07:52:29;;;;;;;12.55;3.92;;;6.80;99.90;;;;;;4974861;28;20069;-78
2022/02/24 07:54:55;;;;;;;17.38;3.92;;;6.80;99.90;;;;;;4975718;28;20035;-79
2022/02/24 07:57:21;;;;;;;35.60;7.57;;;7.20;99.90;;;;;;4975473;28;20053;-79
2022/02/24 07:59:47;;;;;;;16.45;4.35;;;7.20;99.90;;;;;;4975277;28;20019;-79
2022/02/24 08:02:13;;;;;;;18.50;3.85;;;7.20;99.90;;;;;;4980452;28;20392;-80
2022/02/24 08:04:38;;;;;;;6.25;2.53;;;7.50;99.90;;;;;;4977160;28;20027;-80
2022/02/24 08:07:04;;;;;;;8.52;2.80;;;7.50;99.90;;;;;;4965868;28;20483;-80
2022/02/24 08:09:30;;;;;;;7.43;2.40;;;7.80;99.90;;;;;;4980475;28;20518;-80
2022/02/24 08:14:40;;;;;;;5.95;2.70;;;7.60;99.90;;;;;;4958092;29;20046;-79
2022/02/24 08:17:06;;;;;;;5.47;1.70;;;9.10;99.90;;;;;;4957709;29;20408;-79
2022/02/24 08:19:32;;;;;;;5.80;1.10;;;7.90;99.90;;;;;;4974606;28;20035;-80
2022/02/24 08:21:58;;;;;;;3.03;1.23;;;9.50;99.90;;;;;;4975601;28;20511;-79
2022/02/24 08:24:23;;;;;;;4.20;1.20;;;9.20;99.90;;;;;;4974841;28;20019;-80
2022/02/24 08:26:49;;;;;;;3.67;1.20;;;8.60;99.90;;;;;;4975862;28;20480;-80
2022/02/24 08:29:14;;;;;;;4.15;1.40;;;8.90;99.90;;;;;;4974805;28;20027;-79
2022/02/24 08:31:40;;;;;;;4.22;1.05;;;9.10;99.90;;;;;;4976097;28;20031;-79
2022/02/24 08:34:06;;;;;;;4.78;1.10;;;9.50;99.90;;;;;;4977059;28;20027;-80
2022/02/24 08:36:31;;;;;;;3.50;1.02;;;10.60;99.90;;;;;;4983880;28;20084;-79
2022/02/24 08:38:57;;;;;;;2.00;1.02;;;9.90;99.90;;;;;;4982066;28;20046;-80
2022/02/24 08:41:23;;;;;;;5.65;1.85;;;9.50;99.90;;;;;;4982553;28;20030;-79
2022/02/24 08:43:48;;;;;;;2.78;1.40;;;9.80;99.90;;;;;;4979480;28;20037;-80
2022/02/24 08:46:14;;;;;;;7.45;1.67;;;11.70;99.90;;;;;;4978852;28;20037;-80
2022/02/24 08:48:41;;;;;;;1.90;1.38;;;11.40;99.90;;;;;;4979890;28;20066;-80
2022/02/24 08:51:07;;;;;;;1.83;1.08;;;11.80;99.90;;;;;;4961431;28;20034;-80
2022/02/24 08:53:33;;;;;;;4.05;1.33;;;12.60;99.90;;;;;;4974977;28;20038;-81
2022/02/24 08:55:58;;;;;;;2.95;1.35;;;13.00;99.90;;;;;;4940468;28;20497;-80
2022/02/24 08:58:24;;;;;;;3.47;1.17;;;13.80;99.90;;;;;;4973607;28;20043;-79
2022/02/24 09:00:51;;;;;;;2.97;0.98;;;15.40;99.90;;;;;;4974769;28;20466;-82
2022/02/24 09:03:17;;;;;;;5.25;1.10;;;15.80;99.90;;;;;;4976886;28;20360;-79
2022/02/24 09:05:46;;;;;;;2.45;0.93;;;15.60;99.90;;;;;;4976351;28;20041;-80
2022/02/24 09:08:13;;;;;;;3.42;1.10;;;15.50;99.30;;;;;;4978144;28;21267;-81
2022/02/24 09:10:39;;;;;;;2.00;1.00;;;16.20;97.20;;;;;;4976859;28;20060;-79
2022/02/24 09:13:05;;;;;;;3.53;0.82;;;17.20;93.40;;;;;;4973386;28;20031;-81
2022/02/24 09:15:35;;;;;;;3.05;0.85;;;16.90;91.10;;;;;;4956080;28;20025;-80
2022/02/24 09:18:02;;;;;;;2.58;1.02;;;16.60;91.20;;;;;;4961428;28;20028;-79
2022/02/24 09:20:29;;;;;;;2.83;1.08;;;16.80;92.60;;;;;;4966055;28;20483;-80
2022/02/24 09:22:55;;;;;;;3.78;1.25;;;16.00;93.80;;;;;;4974765;28;20065;-80
2022/02/24 09:25:23;;;;;;;4.07;1.27;;;15.90;93.50;;;;;;4974852;28;20038;-81
2022/02/24 09:27:49;;;;;;;3.08;1.30;;;16.10;96.10;;;;;;4974920;28;20506;-81
2022/02/24 09:30:16;;;;;;;4.05;1.10;;;15.00;96.20;;;;;;4973467;28;20039;-80
2022/02/24 09:32:43;;;;;;;3.10;1.25;;;15.40;96.30;;;;;;4972299;28;20407;-80
2022/02/24 09:35:11;;;;;;;3.75;1.50;;;15.70;94.30;;;;;;4957722;28;20556;-81
2022/02/24 09:37:37;;;;;;;3.72;0.98;;;16.50;94.90;;;;;;4974051;28;20527;-79
2022/02/24 09:40:04;;;;;;;3.08;1.20;;;15.10;95.70;;;;;;4966124;28;20496;-79
2022/02/24 09:42:30;;;;;;;5.18;1.55;;;15.90;95.10;;;;;;4955111;28;20065;-81
2022/02/24 09:44:56;;;;;;;9.95;1.48;;;17.40;92.50;;;;;;4955200;28;20031;-80
2022/02/24 09:47:22;;;;;;;2.83;1.38;;;16.40;93.30;;;;;;4971863;28;20118;-80
2022/02/24 09:49:48;;;;;;;3.42;1.88;;;14.90;95.70;;;;;;4968047;28;20356;-79
2022/02/24 09:52:14;;;;;;;2.60;1.25;;;13.50;99.90;;;;;;4952880;29;20068;-80
2022/02/24 09:54:40;;;;;;;4.72;1.33;;;12.90;99.90;;;;;;4973107;28;20411;-81
2022/02/24 09:57:06;;;;;;;1.88;0.93;;;13.10;99.90;;;;;;4961610;28;20023;-81
2022/02/24 09:59:32;;;;;;;5.55;1.30;;;13.60;99.90;;;;;;4961256;28;20027;-79
2022/02/24 10:02:00;;;;;;;3.80;1.25;;;13.70;99.90;;;;;;4972032;28;20301;-79
2022/02/24 10:04:26;;;;;;;5.15;1.45;;;14.40;99.90;;;;;;4955050;28;20062;-80
2022/02/24 10:06:52;;;;;;;4.70;1.20;;;14.90;99.90;;;;;;4980102;28;20042;-80
2022/02/24 10:09:35;;;;;;;3.78;1.60;;;15.10;98.70;;;;;;4975537;28;20650;-78
2022/02/24 10:12:09;;;;;;;5.47;1.52;;;14.60;99.90;;;;;;4969115;28;20034;-80
2022/02/24 10:14:36;;;;;;;1.90;1.00;;;12.90;99.90;;;;;;4969457;28;20499;-81
2022/02/24 10:17:08;;;;;;;2.97;1.40;;;14.60;99.90;;;;;;4969167;28;20019;-79
2022/02/24 10:19:48;;;;;;;3.63;1.45;;;12.50;99.90;;;;;;4968876;28;20038;-79
2022/02/24 10:22:26;;;;;;;3.20;1.52;;;12.70;99.90;;;;;;4968364;28;20050;-79
2022/02/24 10:24:56;;;;;;;2.03;1.27;;;13.00;99.90;;;;;;4968708;28;20037;-78
2022/02/24 10:27:27;;;;;;;2.65;1.20;;;13.50;99.90;;;;;;4969147;28;20041;-80
2022/02/24 10:30:17;;;;;;;4.78;1.88;;;15.10;99.90;;;;;;4968360;28;20034;-82
2022/02/24 10:32:49;;;;;;;3.10;1.38;;;15.60;96.80;;;;;;4969670;28;20030;-80
2022/02/24 10:35:25;;;;;;;5.60;1.60;;;15.80;97.10;;;;;;4968333;28;20114;-81
2022/02/24 10:37:55;;;;;;;5.07;1.42;;;16.20;96.10;;;;;;4970046;28;20057;-79
2022/02/24 10:40:22;;;;;;;5.55;1.50;;;16.40;94.50;;;;;;4970767;28;20023;-84
2022/02/24 10:42:47;;;;;;;3.67;1.10;;;18.00;96.80;;;;;;4969510;28;20498;-78
2022/02/24 10:45:16;;;;;;;4.50;1.50;;;16.30;97.40;;;;;;4969138;28;20088;-80
2022/02/24 10:48:09;;;;;;;6.40;1.30;;;16.10;99.80;;;;;;4950212;28;20511;-82
2022/02/24 10:50:46;;;;;;;3.67;1.33;;;15.60;97.70;;;;;;4968598;28;20043;-79
2022/02/24 10:53:12;;;;;;;5.15;0.90;;;15.70;96.80;;;;;;4974975;28;20515;-79
2022/02/24 10:55:57;;;;;;;2.45;0.88;;;15.70;96.50;;;;;;4978164;28;20042;-82
2022/02/24 10:58:24;;;;;;;3.08;1.00;;;15.00;98.10;;;;;;4981140;28;20027;-80
2022/02/24 11:01:08;;;;;;;2.72;1.15;;;14.60;97.70;;;;;;5014355;28;20428;-80
2022/02/24 11:03:34;;;;;;;3.30;1.35;;;14.30;97.30;;;;;;4968490;28;20023;-81
2022/02/24 11:06:04;;;;;;;2.97;1.10;;;14.30;98.20;;;;;;4982013;28;20110;-82
2022/02/24 11:08:31;;;;;;;2.22;0.95;;;14.10;98.00;;;;;;4976203;28;20512;-83
2022/02/24 11:10:57;;;;;;;6.25;0.98;;;14.00;98.10;;;;;;4967315;28;20027;-81
2022/02/24 11:13:23;;;;;;;3.67;1.20;;;13.60;99.20;;;;;;4981794;28;20038;-80
2022/02/24 11:15:50;;;;;;;1.95;1.00;;;13.50;99.70;;;;;;4981946;28;20031;-80
2022/02/24 11:18:19;;;;;;;5.30;0.85;;;13.70;98.90;;;;;;4984964;28;20031;-83
2022/02/24 11:20:45;;;;;;;3.72;1.10;;;13.60;97.90;;;;;;4983337;28;20057;-82
2022/02/24 11:23:13;;;;;;;2.17;0.90;;;14.00;97.60;;;;;;4956543;28;20027;-79
2022/02/24 11:25:53;;;;;;;4.10;1.10;;;14.20;96.70;;;;;;4975076;28;20088;-79
2022/02/24 11:28:21;;;;;;;4.32;1.08;;;14.40;94.90;;;;;;4974701;28;20076;-79
2022/02/24 11:30:54;;;;;;;2.10;0.98;;;14.20;95.50;;;;;;4974499;28;20027;-79
2022/02/24 11:33:21;;;;;;;3.83;1.10;;;14.60;96.40;;;;;;4974692;28;20026;-78
2022/02/24 11:36:10;;;;;;;3.65;1.02;;;13.90;96.50;;;;;;4975680;28;20499;-80
2022/02/24 11:38:36;;;;;;;5.47;1.10;;;14.00;96.20;;;;;;4973587;28;20172;-80
2022/02/24 11:41:09;;;;;;;3.03;1.00;;;15.20;96.40;;;;;;4973969;28;20066;-79
2022/02/24 11:43:36;;;;;;;2.15;0.85;;;13.80;96.40;;;;;;4972842;28;20027;-79
2022/02/24 11:46:06;;;;;;;6.65;1.00;;;13.80;96.70;;;;;;4973614;28;20027;-79
2022/02/24 11:48:36;;;;;;;4.40;1.00;;;14.00;95.50;;;;;;4972683;28;20059;-79
2022/02/24 11:51:07;;;;;;;4.38;0.98;;;14.90;95.50;;;;;;4970775;28;20096;-79
2022/02/24 11:53:37;;;;;;;2.45;0.90;;;15.40;96.00;;;;;;4954748;28;20027;-79
2022/02/24 11:56:19;;;;;;;4.40;1.08;;;14.80;93.10;;;;;;4972920;28;20015;-78
2022/02/24 11:58:49;;;;;;;2.97;0.90;;;15.20;91.60;;;;;;4972189;28;20030;-79
2022/02/24 12:01:23;;;;;;;3.45;0.80;;;15.20;92.60;;;;;;4965328;28;20026;-78
2022/02/24 12:03:58;;;;;;;4.53;0.98;;;15.60;91.60;;;;;;4967494;28;20722;-79
2022/02/24 12:06:41;;;;;;;6.05;0.90;;;16.10;90.10;;;;;;4972347;28;20018;-79
2022/02/24 12:09:14;;;;;;;3.05;1.20;;;16.10;90.30;;;;;;4970913;28;20027;-78
2022/02/24 12:11:39;;;;;;;;;;;15.40;89.30;;;;;;4969048;28;20072;-79
2022/02/24 12:14:28;;;;;;;3.80;1.00;;;15.50;88.50;;;;;;4970046;28;20000;-78
2022/02/24 12:17:05;;;;;;;3.30;1.00;;;15.70;91.10;;;;;;4969937;28;20786;-78
2022/02/24 12:19:53;;;;;;;4.40;1.60;;;15.70;91.10;;;;;;4967153;28;20055;-80
2022/02/24 12:22:39;;;;;;;1.88;0.65;;;14.90;90.50;;;;;;4963004;28;20034;-80
2022/02/24 12:25:19;;;;;;;5.55;1.00;;;14.40;91.70;;;;;;4963185;28;20038;-80
2022/02/24 12:28:08;;;;;;;3.33;0.80;;;14.30;91.60;;;;;;4972289;28;20022;-80
2022/02/24 12:30:38;;;;;;;2.78;0.80;;;14.30;91.50;;;;;;4966504;28;20027;-80
2022/02/24 12:33:09;;;;;;;1.73;0.73;;;14.30;92.90;;;;;;4949163;28;20384;-79
2022/02/24 12:35:52;;;;;;;3.05;0.75;;;15.70;92.70;;;;;;4970838;28;20031;-79
2022/02/24 12:38:20;;;;;;;1.27;0.57;;;14.80;91.70;;;;;;4972605;28;20037;-79
2022/02/24 12:40:48;;;;;;;5.03;1.08;;;15.00;92.40;;;;;;4972281;28;20027;-79
2022/02/24 12:43:18;;;;;;;3.28;1.10;;;14.60;92.50;;;;;;4972745;28;20076;-79
2022/02/24 12:45:45;;;;;;;3.63;1.10;;;14.30;92.50;;;;;;4955315;28;20035;-79
2022/02/24 12:48:12;;;;;;;4.68;1.10;;;15.00;92.90;;;;;;4973413;28;20038;-79
2022/02/24 12:50:47;;;;;;;3.28;1.30;;;14.40;92.10;;;;;;4972227;28;20037;-79
2022/02/24 12:53:15;;;;;;;3.88;0.90;;;14.30;92.90;;;;;;4971585;28;20045;-79
2022/02/24 12:55:41;;;;;;;3.55;0.90;;;13.90;92.70;;;;;;4970010;28;20067;-80